createdAt,value
2022-12-08T00:01:41.524Z,97842.61
2022-12-08T00:04:10.504Z,97839.97
2022-12-08T00:07:01.214Z,97839.55
2022-12-08T00:09:37.984Z,97837.41
2022-12-08T00:12:16.776Z,97839.13
2022-12-08T00:14:47.571Z,97842.36
2022-12-08T00:17:16.857Z,97841.25
2022-12-08T00:19:45.196Z,97843.56
2022-12-08T00:22:14.666Z,97845.14
2022-12-08T00:24:45.630Z,97850.63
2022-12-08T00:27:15.923Z,97852.54
2022-12-08T00:29:45.686Z,97853.42
2022-12-08T00:32:14.216Z,97852.86
2022-12-08T00:34:42.370Z,97855.30
2022-12-08T00:37:10.533Z,97853.36
2022-12-08T00:39:38.671Z,97855.67
2022-12-08T00:42:12.713Z,97858.58
2022-12-08T00:44:46.026Z,97858.65
2022-12-08T00:47:14.798Z,97861.73
2022-12-08T00:49:43.006Z,97874.66
2022-12-08T00:52:12.702Z,97879.38
2022-12-08T00:54:40.811Z,97881.12
2022-12-08T00:57:08.918Z,97880.70
2022-12-08T00:59:37.015Z,97883.52
2022-12-08T01:02:05.120Z,97880.20
2022-12-08T01:06:50.701Z,97881.42
2022-12-08T01:09:19.444Z,97874.71
2022-12-08T01:11:48.893Z,97883.34
2022-12-08T01:14:17.287Z,97881.50
2022-12-08T01:16:45.806Z,97886.29
2022-12-08T01:19:16.790Z,97887.70
2022-12-08T01:21:46.493Z,97891.73
2022-12-08T01:24:19.368Z,97893.16
2022-12-08T01:26:49.826Z,97891.14
2022-12-08T01:29:18.349Z,97891.19
2022-12-08T01:31:46.585Z,97889.88
2022-12-08T01:34:15.034Z,97882.59
2022-12-08T01:36:44.575Z,97879.02
2022-12-08T01:39:19.567Z,97879.70
2022-12-08T01:41:48.006Z,97881.91
2022-12-08T01:44:16.106Z,97885.20
2022-12-08T01:46:48.597Z,97888.33
2022-12-08T01:49:32.661Z,97889.11
2022-12-08T01:52:42.187Z,97890.46
2022-12-08T01:55:23.070Z,97889.95
2022-12-08T01:57:58.910Z,97895.19
2022-12-08T02:00:27.115Z,97901.23
2022-12-08T02:03:12.049Z,97898.02
2022-12-08T02:05:41.935Z,97898.70
2022-12-08T02:08:13.313Z,97900.19
2022-12-08T02:10:43.455Z,97902.48
2022-12-08T02:13:16.839Z,97903.30
2022-12-08T02:16:38.435Z,97895.31
2022-12-08T02:19:49.360Z,97899.34
2022-12-08T02:22:33.779Z,97905.64
2022-12-08T02:25:01.865Z,97906.70
2022-12-08T02:27:46.835Z,97906.01
2022-12-08T02:30:47.168Z,97904.77
2022-12-08T02:33:37.014Z,97908.62
2022-12-08T02:36:57.595Z,97910.05
2022-12-08T02:39:36.070Z,97905.48
2022-12-08T02:42:08.247Z,97905.07
2022-12-08T02:44:43.799Z,97906.95
2022-12-08T02:47:18.263Z,97905.89
2022-12-08T02:49:47.212Z,97908.48
2022-12-08T02:52:15.315Z,97911.05
2022-12-08T02:54:56.880Z,97909.83
2022-12-08T02:57:52.600Z,97906.59
2022-12-08T03:00:23.777Z,97901.20
2022-12-08T03:03:23.997Z,97900.76
2022-12-08T03:06:10.488Z,97899.86
2022-12-08T03:09:10.494Z,97900.64
2022-12-08T03:11:50.437Z,97896.86
2022-12-08T03:14:20.588Z,97899.37
2022-12-08T03:16:53.733Z,97902.97
2022-12-08T03:19:28.584Z,97896.58
2022-12-08T03:22:03.500Z,97895.58
2022-12-08T03:24:37.383Z,97891.19
2022-12-08T03:27:14.744Z,97891.31
2022-12-08T03:29:43.499Z,97894.93
2022-12-08T03:32:30.679Z,97897.55
2022-12-08T03:35:04.776Z,97897.22
2022-12-08T03:37:36.717Z,97895.70
2022-12-08T03:40:08.184Z,97896.23
2022-12-08T03:42:36.348Z,97898.94
2022-12-08T03:45:06.053Z,97901.04
2022-12-08T03:47:34.254Z,97898.93
2022-12-08T03:50:02.794Z,97902.05
2022-12-08T03:52:31.165Z,97902.70
2022-12-08T03:54:59.351Z,97908.42
2022-12-08T03:57:27.500Z,97907.59
2022-12-08T03:59:55.655Z,97905.04
2022-12-08T04:02:23.936Z,97900.70
2022-12-08T04:04:52.134Z,97899.60
2022-12-08T04:07:20.238Z,97900.73
2022-12-08T04:09:48.345Z,97898.95
2022-12-08T04:12:16.478Z,97899.94
2022-12-08T04:14:44.711Z,97898.13
2022-12-08T04:17:12.910Z,97897.69
2022-12-08T04:19:41.055Z,97898.56
2022-12-08T04:22:09.186Z,97896.58
2022-12-08T04:24:37.340Z,97893.75
2022-12-08T04:27:05.514Z,97901.27
2022-12-08T04:29:33.704Z,97898.90
2022-12-08T04:32:01.857Z,97897.78
2022-12-08T04:34:30.215Z,97893.67
2022-12-08T04:36:58.367Z,97890.77
2022-12-08T04:39:26.481Z,97891.20
2022-12-08T04:41:54.735Z,97891.80
2022-12-08T04:44:22.883Z,97888.91
2022-12-08T04:46:51.064Z,97884.44
2022-12-08T04:49:19.235Z,97887.38
2022-12-08T04:51:47.395Z,97889.96
2022-12-08T04:54:15.537Z,97892.23
2022-12-08T04:56:43.704Z,97893.27
2022-12-08T04:59:11.878Z,97892.56
2022-12-08T05:01:40.136Z,97891.19
2022-12-08T05:04:08.438Z,97887.90
2022-12-08T05:06:36.559Z,97889.11
2022-12-08T05:09:04.793Z,97893.23
2022-12-08T05:11:32.989Z,97900.02
2022-12-08T05:14:01.113Z,97897.04
2022-12-08T05:16:29.328Z,97903.45
2022-12-08T05:18:57.516Z,97904.00
2022-12-08T05:21:25.667Z,97905.39
2022-12-08T05:23:53.959Z,97907.82
2022-12-08T05:26:22.114Z,97909.71
2022-12-08T05:28:50.330Z,97916.14
2022-12-08T05:31:18.918Z,97922.17
2022-12-08T05:33:50.064Z,97920.42
2022-12-08T05:36:19.237Z,97917.79
2022-12-08T05:38:47.740Z,97922.12
2022-12-08T05:41:21.081Z,97922.19
2022-12-08T05:43:49.283Z,97920.11
2022-12-08T05:46:27.889Z,97919.83
2022-12-08T05:48:56.168Z,97925.58
2022-12-08T05:51:24.579Z,97929.23
2022-12-08T05:53:53.255Z,97926.30
2022-12-08T05:56:22.488Z,97925.96
2022-12-08T05:58:51.337Z,97927.52
2022-12-08T06:01:27.439Z,97924.64
2022-12-08T06:03:58.155Z,97925.28
2022-12-08T06:06:26.615Z,97928.41
2022-12-08T06:08:55.231Z,97930.23
2022-12-08T06:11:30.271Z,97931.25
2022-12-08T06:13:59.140Z,97932.56
2022-12-08T06:16:28.882Z,97934.00
2022-12-08T06:18:57.439Z,97936.01
2022-12-08T06:21:25.623Z,97934.17
2022-12-08T06:23:55.104Z,97933.89
2022-12-08T06:26:23.446Z,97936.58
2022-12-08T06:28:52.386Z,97940.30
2022-12-08T06:31:24.722Z,97942.30
2022-12-08T06:33:54.577Z,97946.22
2022-12-08T06:36:26.551Z,97944.39
2022-12-08T06:38:56.049Z,97943.07
2022-12-08T06:41:25.905Z,97945.92
2022-12-08T06:43:57.609Z,97940.81
2022-12-08T06:46:25.829Z,97940.88
2022-12-08T06:48:54.433Z,97944.03
2022-12-08T06:51:25.715Z,97947.75
2022-12-08T06:53:53.834Z,97945.20
2022-12-08T06:56:23.995Z,97940.77
2022-12-08T06:58:53.231Z,97946.59
2022-12-08T07:01:21.686Z,97945.48
2022-12-08T07:03:49.960Z,97945.13
2022-12-08T07:06:24.375Z,97949.48
2022-12-08T07:08:52.719Z,97949.66
2022-12-08T07:11:22.327Z,97954.16
2022-12-08T07:13:51.224Z,97959.00
2022-12-08T07:16:19.645Z,97960.33
2022-12-08T07:18:48.101Z,97960.80
2022-12-08T07:21:17.961Z,97961.98
2022-12-08T07:23:50.247Z,97967.73
2022-12-08T07:26:22.380Z,97966.13
2022-12-08T07:28:50.486Z,97963.95
2022-12-08T07:31:26.042Z,97966.52
2022-12-08T07:33:56.347Z,97965.82
2022-12-08T07:36:25.315Z,97967.35
2022-12-08T07:38:53.897Z,97964.55
2022-12-08T07:41:25.810Z,97969.00
2022-12-08T07:43:54.231Z,97961.81
2022-12-08T07:46:25.495Z,97962.67
2022-12-08T07:48:55.304Z,97967.54
2022-12-08T07:51:25.015Z,97967.15
2022-12-08T07:53:55.132Z,97969.14
2022-12-08T07:56:23.528Z,97964.52
2022-12-08T07:58:51.681Z,97958.21
2022-12-08T08:01:22.871Z,97967.20
2022-12-08T08:03:51.639Z,97971.52
2022-12-08T08:06:19.737Z,97973.54
2022-12-08T08:08:48.026Z,97975.38
2022-12-08T08:11:20.868Z,97977.23
2022-12-08T08:13:51.599Z,97975.08
2022-12-08T08:16:21.190Z,97976.54
2022-12-08T08:18:51.209Z,97976.44
2022-12-08T08:24:09.244Z,97980.10
2022-12-08T08:26:38.184Z,97983.13
2022-12-08T08:29:06.334Z,97976.76
2022-12-08T08:31:34.687Z,97979.05
2022-12-08T08:34:06.359Z,97978.20
2022-12-08T08:36:35.636Z,97974.09
2022-12-08T08:39:04.709Z,97969.85
2022-12-08T08:41:33.290Z,97963.81
2022-12-08T08:44:01.546Z,97958.73
2022-12-08T08:46:29.843Z,97962.63
2022-12-08T08:48:58.606Z,97959.98
2022-12-08T08:51:26.976Z,97957.20
2022-12-08T08:53:55.094Z,97952.48
2022-12-08T08:56:23.394Z,97953.64
2022-12-08T08:58:53.337Z,97947.25
2022-12-08T09:01:25.483Z,97938.02
2022-12-08T09:03:55.164Z,97929.64
2022-12-08T09:06:24.771Z,97928.85
2022-12-08T09:08:53.033Z,97926.45
2022-12-08T09:11:23.553Z,97910.58
2022-12-08T09:13:53.489Z,97913.91
2022-12-08T09:16:22.349Z,97910.31
2022-12-08T09:18:50.969Z,97912.02
2022-12-08T09:21:24.260Z,97908.36
2022-12-08T09:23:57.195Z,97907.80
2022-12-08T09:26:27.881Z,97905.66
2022-12-08T09:28:57.147Z,97903.59
2022-12-08T09:31:25.744Z,97902.13
2022-12-08T09:33:54.169Z,97898.88
2022-12-08T09:36:22.367Z,97897.70
2022-12-08T09:38:51.754Z,97894.88
2022-12-08T09:41:40.220Z,97891.45
2022-12-08T09:44:49.202Z,97890.77
2022-12-08T09:47:37.998Z,97888.73
2022-12-08T09:50:30.561Z,97889.90
2022-12-08T09:53:54.888Z,97884.50
2022-12-08T09:56:30.086Z,97876.21
2022-12-08T09:59:04.053Z,97869.54
2022-12-08T10:01:38.366Z,97866.10
2022-12-08T10:04:22.214Z,97870.14
2022-12-08T10:07:02.531Z,97870.93
2022-12-08T10:09:48.856Z,97867.59
2022-12-08T10:12:50.808Z,97870.60
2022-12-08T10:16:02.055Z,97869.05
2022-12-08T10:18:33.546Z,97858.96
2022-12-08T10:21:22.320Z,97855.11
2022-12-08T10:23:55.726Z,97861.24
2022-12-08T10:26:24.558Z,97860.17
2022-12-08T10:28:52.731Z,97857.44
2022-12-08T10:31:24.406Z,97854.60
2022-12-08T10:34:15.687Z,97845.60
2022-12-08T10:36:59.245Z,97845.70
2022-12-08T10:39:31.724Z,97835.13
2022-12-08T10:42:17.288Z,97830.64
2022-12-08T10:44:57.699Z,97816.89
2022-12-08T10:47:28.664Z,97814.69
2022-12-08T10:50:15.597Z,97817.43
2022-12-08T10:52:43.729Z,97831.30
2022-12-08T10:55:18.786Z,97820.21
2022-12-08T10:57:49.114Z,97804.49
2022-12-08T11:00:28.271Z,97801.79
2022-12-08T11:03:04.314Z,97800.92
2022-12-08T11:05:35.491Z,97798.36
2022-12-08T11:08:05.898Z,97795.53
2022-12-08T11:10:44.110Z,97798.12
2022-12-08T11:13:42.161Z,97800.23
2022-12-08T11:16:15.476Z,97794.52
2022-12-08T11:18:48.112Z,97792.27
2022-12-08T11:21:19.291Z,97792.41
2022-12-08T11:23:50.410Z,97781.14
2022-12-08T11:26:31.777Z,97776.64
2022-12-08T11:28:59.968Z,97767.23
2022-12-08T11:31:42.379Z,97766.33
2022-12-08T11:34:31.334Z,97768.27
2022-12-08T11:36:59.796Z,97765.82
2022-12-08T11:39:31.581Z,97764.98
2022-12-08T11:42:04.087Z,97760.59
2022-12-08T11:44:50.565Z,97757.52
2022-12-08T11:47:31.852Z,97744.60
2022-12-08T11:50:40.981Z,97735.84
2022-12-08T11:53:52.333Z,97737.23
2022-12-08T11:56:33.615Z,97736.65
2022-12-08T11:59:11.129Z,97738.10
2022-12-08T12:01:42.488Z,97733.65
2022-12-08T12:04:19.038Z,97732.20
2022-12-08T12:07:26.556Z,97725.42
2022-12-08T12:10:20.236Z,97725.40
2022-12-08T12:13:15.514Z,97723.64
2022-12-08T12:15:55.696Z,97723.05
2022-12-08T12:18:46.411Z,97705.74
2022-12-08T12:21:30.672Z,97697.98
2022-12-08T12:24:06.584Z,97710.52
2022-12-08T12:26:39.519Z,97713.47
2022-12-08T12:29:21.077Z,97708.20
2022-12-08T12:31:56.077Z,97713.12
2022-12-08T12:34:59.013Z,97720.27
2022-12-08T12:37:38.787Z,97719.59
2022-12-08T12:40:20.694Z,97722.80
2022-12-08T12:43:09.835Z,97719.19
2022-12-08T12:45:44.016Z,97715.02
2022-12-08T12:48:25.388Z,97709.14
2022-12-08T12:50:55.344Z,97708.83
2022-12-08T12:53:24.380Z,97693.64
2022-12-08T12:56:00.083Z,97691.37
2022-12-08T12:58:30.429Z,97694.02
2022-12-08T13:01:11.477Z,97692.69
2022-12-08T13:04:06.227Z,97694.77
2022-12-08T13:06:46.006Z,97701.94
2022-12-08T13:09:39.290Z,97694.73
2022-12-08T13:12:20.105Z,97692.69
2022-12-08T13:14:51.226Z,97681.27
2022-12-08T13:17:45.510Z,97679.27
2022-12-08T13:20:24.130Z,97672.39
2022-12-08T13:23:13.779Z,97657.44
2022-12-08T13:25:47.737Z,97663.88
2022-12-08T13:28:15.935Z,97667.92
2022-12-08T13:30:47.064Z,97657.85
2022-12-08T13:33:39.497Z,97644.31
2022-12-08T13:36:19.046Z,97639.29
2022-12-08T13:38:50.623Z,97639.30
2022-12-08T13:41:44.466Z,97640.98
2022-12-08T13:45:21.480Z,97643.63
2022-12-08T13:48:23.295Z,97646.89
2022-12-08T13:57:09.966Z,97646.64
2022-12-08T13:59:45.184Z,97641.41
2022-12-08T14:02:33.245Z,97637.79
2022-12-08T14:05:19.833Z,97632.42
2022-12-08T14:07:53.958Z,97627.77
2022-12-08T14:10:29.360Z,97621.52
2022-12-08T14:13:12.496Z,97618.59
2022-12-08T14:15:40.954Z,97619.49
2022-12-08T14:18:31.377Z,97618.30
2022-12-08T14:21:20.943Z,97625.67
2022-12-08T14:23:49.863Z,97631.73
2022-12-08T14:26:18.183Z,97638.17
2022-12-08T14:28:46.498Z,97641.48
2022-12-08T14:31:17.247Z,97639.53
2022-12-08T14:33:49.367Z,97642.11
2022-12-08T14:36:21.884Z,97642.27
2022-12-08T14:38:53.383Z,97636.29
2022-12-08T14:41:32.050Z,97630.48
2022-12-08T14:44:02.265Z,97630.62
2022-12-08T14:46:30.738Z,97629.17
2022-12-08T14:49:02.094Z,97628.27
2022-12-08T14:51:33.235Z,97626.48
2022-12-08T14:54:08.525Z,97625.41
2022-12-08T14:56:52.369Z,97621.55
2022-12-08T14:59:36.776Z,97620.98
2022-12-08T15:02:21.807Z,97623.27
2022-12-08T15:05:12.770Z,97623.15
2022-12-08T15:07:54.231Z,97613.96
2022-12-08T15:10:26.712Z,97608.83
2022-12-08T15:13:03.879Z,97608.73
2022-12-08T15:16:02.824Z,97618.47
2022-12-08T15:18:40.996Z,97626.45
2022-12-08T15:21:13.019Z,97622.19
2022-12-08T15:23:45.743Z,97614.05
2022-12-08T15:26:21.454Z,97608.53
2022-12-08T15:28:50.198Z,97604.29
2022-12-08T15:31:18.767Z,97607.54
2022-12-08T15:33:47.518Z,97611.14
2022-12-08T15:36:15.800Z,97612.84
2022-12-08T15:38:44.014Z,97607.00
2022-12-08T15:41:15.163Z,97600.45
2022-12-08T15:43:44.587Z,97597.31
2022-12-08T15:46:13.105Z,97598.10
2022-12-08T15:48:41.759Z,97596.05
2022-12-08T15:51:10.106Z,97595.85
2022-12-08T15:53:38.356Z,97594.20
2022-12-08T15:58:57.672Z,97589.08
2022-12-08T16:01:27.387Z,97582.66
2022-12-08T16:07:21.039Z,97585.10
2022-12-08T16:09:41.525Z,97588.45
2022-12-08T16:16:01.083Z,97571.38
2022-12-08T16:18:36.109Z,97561.09
2022-12-08T16:21:12.382Z,97558.39
2022-12-08T16:23:51.083Z,97559.55
2022-12-08T16:29:20.401Z,97546.33
2022-12-08T16:31:49.403Z,97544.35
2022-12-08T16:34:17.628Z,97537.58
2022-12-08T16:36:45.788Z,97539.56
2022-12-08T16:39:14.600Z,97540.55
2022-12-08T16:42:01.437Z,97539.11
2022-12-08T16:44:29.621Z,97536.98
2022-12-08T16:46:57.816Z,97531.01
2022-12-08T16:49:25.983Z,97522.51
2022-12-08T16:51:54.212Z,97523.13
2022-12-08T16:54:22.505Z,97528.59
2022-12-08T16:56:50.958Z,97532.70
2022-12-08T16:59:19.202Z,97531.06
2022-12-08T17:01:47.521Z,97530.40
2022-12-08T17:04:31.495Z,97545.14
2022-12-08T17:07:00.454Z,97551.79
2022-12-08T17:09:30.932Z,97547.68
2022-12-08T17:12:03.690Z,97547.10
2022-12-08T17:14:36.340Z,97546.93
2022-12-08T17:17:04.964Z,97549.00
2022-12-08T17:19:33.956Z,97544.23
2022-12-08T17:22:04.953Z,97538.86
2022-12-08T17:24:34.360Z,97540.40
2022-12-08T17:27:04.240Z,97536.05
2022-12-08T17:29:34.226Z,97539.43
2022-12-08T17:32:02.616Z,97539.94
2022-12-08T17:34:31.110Z,97536.90
2022-12-08T17:36:59.385Z,97533.56
2022-12-08T17:39:27.616Z,97531.12
2022-12-08T17:41:55.718Z,97529.23
2022-12-08T17:44:24.111Z,97531.91
2022-12-08T17:46:53.372Z,97534.14
2022-12-08T17:49:25.867Z,97534.55
2022-12-08T17:51:56.068Z,97534.39
2022-12-08T17:54:24.828Z,97537.08
2022-12-08T17:56:54.125Z,97534.61
2022-12-08T17:59:22.310Z,97531.52
2022-12-08T18:01:53.430Z,97529.58
2022-12-08T18:04:22.272Z,97526.73
2022-12-08T18:06:50.698Z,97526.64
2022-12-08T18:09:19.729Z,97523.48
2022-12-08T18:11:48.016Z,97521.67
2022-12-08T18:14:16.623Z,97520.17
2022-12-08T18:16:46.608Z,97520.70
2022-12-08T18:19:15.856Z,97520.28
2022-12-08T18:21:44.634Z,97517.99
2022-12-08T18:24:22.092Z,97514.69
2022-12-08T18:26:52.417Z,97516.48
2022-12-08T18:29:22.745Z,97512.04
2022-12-08T18:31:52.108Z,97511.20
2022-12-08T18:34:20.767Z,97506.36
2022-12-08T18:36:49.227Z,97508.90
2022-12-08T18:39:26.991Z,97508.09
2022-12-08T18:41:57.532Z,97506.66
2022-12-08T18:44:25.798Z,97502.27
2022-12-08T18:46:54.299Z,97495.17
2022-12-08T18:49:22.558Z,97493.55
2022-12-08T18:51:50.701Z,97492.08
2022-12-08T18:54:21.984Z,97496.34
2022-12-08T18:56:52.602Z,97490.20
2022-12-08T18:59:22.871Z,97492.83
2022-12-08T19:01:51.156Z,97498.23
2022-12-08T19:04:28.480Z,97495.01
2022-12-08T19:06:57.830Z,97489.79
2022-12-08T19:09:26.981Z,97488.77
2022-12-08T19:11:56.697Z,97487.59
2022-12-08T19:14:28.394Z,97489.35
2022-12-08T19:16:57.840Z,97491.08
2022-12-08T19:19:27.701Z,97490.94
2022-12-08T19:21:56.949Z,97493.52
2022-12-08T19:24:25.636Z,97497.34
2022-12-08T19:26:53.932Z,97500.98
2022-12-08T19:29:22.160Z,97498.14
2022-12-08T19:31:50.485Z,97502.09
2022-12-08T19:34:19.287Z,97503.95
2022-12-08T19:36:48.029Z,97498.84
2022-12-08T19:39:42.257Z,97496.49
2022-12-08T19:42:38.720Z,97495.52
2022-12-08T19:45:17.285Z,97493.48
2022-12-08T19:47:45.683Z,97491.14
2022-12-08T19:53:26.164Z,97493.17
2022-12-08T19:55:53.416Z,97490.77
2022-12-08T19:58:20.255Z,97480.78
2022-12-08T20:00:47.199Z,97482.30
2022-12-08T20:03:20.542Z,97485.42
2022-12-08T20:05:50.346Z,97481.79
2022-12-08T20:08:17.214Z,97481.40
2022-12-08T20:10:44.573Z,97478.08
2022-12-08T20:13:31.200Z,97474.83
2022-12-08T20:15:58.393Z,97473.05
2022-12-08T20:18:25.216Z,97473.27
2022-12-08T20:20:51.981Z,97476.31
2022-12-08T20:23:18.785Z,97466.65
2022-12-08T20:25:47.057Z,97463.79
2022-12-08T20:28:14.479Z,97456.99
2022-12-08T20:30:42.090Z,97456.73
2022-12-08T20:33:12.934Z,97456.80
2022-12-08T20:35:40.285Z,97464.02
2022-12-08T20:38:07.589Z,97469.92
2022-12-08T20:40:34.474Z,97472.67
2022-12-08T20:43:01.851Z,97473.54
2022-12-08T20:45:28.628Z,97479.59
2022-12-08T20:47:55.396Z,97482.30
2022-12-08T20:50:22.302Z,97482.23
2022-12-08T20:52:49.098Z,97479.88
2022-12-08T20:55:15.971Z,97479.52
2022-12-08T20:57:43.021Z,97474.42
2022-12-08T21:00:11.250Z,97476.48
2022-12-08T21:02:43.220Z,97472.35
2022-12-08T21:05:14.226Z,97467.59
2022-12-08T21:07:41.607Z,97466.52
2022-12-08T21:10:09.864Z,97468.18
2022-12-08T21:12:37.183Z,97471.44
2022-12-08T21:15:07.068Z,97471.69
2022-12-08T21:17:33.946Z,97476.45
2022-12-08T21:20:00.911Z,97478.62
2022-12-08T21:22:28.013Z,97481.77
2022-12-08T21:24:56.343Z,97478.84
2022-12-08T21:27:23.151Z,97479.90
2022-12-08T21:29:49.995Z,97476.60
2022-12-08T21:32:16.840Z,97473.79
2022-12-08T21:34:44.933Z,97477.45
2022-12-08T21:37:12.734Z,97476.27
2022-12-08T21:39:39.763Z,97478.13
2022-12-08T21:42:30.698Z,97475.69
2022-12-08T21:45:00.671Z,97475.05
2022-12-08T21:47:27.968Z,97481.36
2022-12-08T21:49:54.849Z,97478.73
2022-12-08T21:52:21.742Z,97475.69
2022-12-08T21:54:48.547Z,97477.03
2022-12-08T21:57:15.355Z,97480.59
2022-12-08T21:59:42.225Z,97478.09
2022-12-08T22:02:19.444Z,97476.73
2022-12-08T22:04:49.947Z,97481.24
2022-12-08T22:07:17.738Z,97478.02
2022-12-08T22:09:44.922Z,97480.00
2022-12-08T22:12:12.881Z,97479.58
2022-12-08T22:14:39.935Z,97475.14
2022-12-08T22:17:07.205Z,97470.52
2022-12-08T22:19:34.835Z,97466.01
2022-12-08T22:22:01.902Z,97467.95
2022-12-08T22:24:30.169Z,97466.46
2022-12-08T22:26:57.143Z,97463.38
2022-12-08T22:29:24.139Z,97459.22
2022-12-08T22:31:50.933Z,97457.68
2022-12-08T22:34:17.802Z,97461.55
2022-12-08T22:36:44.944Z,97461.56
2022-12-08T22:39:11.868Z,97460.59
2022-12-08T22:41:38.827Z,97458.90
2022-12-08T22:44:06.696Z,97459.36
2022-12-08T22:46:34.342Z,97461.02
2022-12-08T22:49:02.018Z,97458.75
2022-12-08T22:51:29.087Z,97457.31
2022-12-08T22:53:56.019Z,97455.23
2022-12-08T22:56:22.873Z,97451.12
2022-12-08T22:58:50.697Z,97448.02
2022-12-08T23:01:24.773Z,97454.82
2022-12-08T23:03:51.826Z,97438.56
2022-12-08T23:06:19.274Z,97438.04
2022-12-08T23:08:46.531Z,97448.30
2022-12-08T23:11:13.598Z,97452.39
2022-12-08T23:13:40.783Z,97447.16
2022-12-08T23:16:09.913Z,97440.02
2022-12-08T23:18:40.526Z,97432.73
2022-12-08T23:21:11.602Z,97430.20
2022-12-08T23:23:38.788Z,97437.00
2022-12-08T23:26:16.537Z,97441.86
2022-12-08T23:28:43.601Z,97438.69
2022-12-08T23:31:10.551Z,97436.17
2022-12-08T23:33:37.311Z,97443.05
2022-12-08T23:36:04.475Z,97433.13
2022-12-08T23:38:31.346Z,97440.14
2022-12-08T23:41:04.289Z,97444.70
2022-12-08T23:43:31.343Z,97442.88
2022-12-08T23:45:58.170Z,97445.10
2022-12-08T23:48:27.495Z,97444.50
2022-12-08T23:50:56.460Z,97438.85
2022-12-08T23:53:23.337Z,97438.80
2022-12-08T23:55:50.191Z,97439.75
2022-12-08T23:58:17.014Z,97443.20
